createdAt,value
2023-03-11T03:59:02.727Z,19.79
2023-03-11T04:00:02.687Z,19.83
2023-03-11T04:01:02.682Z,19.74
2023-03-11T04:02:02.733Z,19.78
2023-03-11T04:03:02.754Z,19.79
2023-03-11T04:04:02.685Z,19.75
2023-03-11T04:05:02.661Z,19.78
2023-03-11T04:06:02.622Z,19.82
2023-03-11T04:07:02.615Z,19.75
2023-03-11T04:08:02.617Z,19.83
2023-03-11T04:09:02.654Z,19.86
2023-03-11T04:10:02.635Z,19.85
2023-03-11T04:11:02.601Z,19.86
2023-03-11T04:12:02.598Z,19.85
2023-03-11T04:13:02.587Z,19.82
2023-03-11T04:14:02.585Z,19.93
2023-03-11T04:15:02.610Z,19.93
2023-03-11T04:16:02.595Z,19.97
2023-03-11T04:17:02.614Z,19.92
2023-03-11T04:18:02.564Z,19.93
2023-03-11T04:19:02.545Z,19.98
2023-03-11T04:20:02.569Z,19.92
2023-03-11T04:21:02.560Z,20.02
2023-03-11T04:22:02.564Z,20.05
2023-03-11T04:23:02.538Z,20.05
2023-03-11T04:24:02.523Z,19.98
2023-03-11T04:25:02.538Z,20.04
2023-03-11T04:26:02.512Z,20.05
2023-03-11T04:27:02.538Z,20.07
2023-03-11T04:28:02.537Z,20.10
2023-03-11T04:29:02.544Z,20.08
2023-03-11T04:30:02.505Z,20.20
2023-03-11T04:31:02.550Z,20.16
2023-03-11T04:32:02.530Z,20.18
2023-03-11T04:33:02.488Z,20.05
2023-03-11T04:34:02.488Z,20.23
2023-03-11T04:35:02.471Z,20.11
2023-03-11T04:36:02.683Z,20.16
2023-03-11T04:37:02.482Z,20.15
2023-03-11T04:38:02.461Z,20.20
2023-03-11T04:39:02.444Z,20.23
2023-03-11T04:40:02.459Z,20.16
2023-03-11T04:41:02.437Z,20.23
2023-03-11T04:42:04.047Z,20.26
2023-03-11T04:43:02.457Z,20.25
2023-03-11T04:44:02.444Z,20.16
2023-03-11T04:45:02.415Z,20.27
2023-03-11T04:46:02.451Z,20.27
2023-03-11T04:47:02.465Z,20.30
2023-03-11T04:48:02.398Z,20.25
2023-03-11T04:49:02.391Z,20.32
2023-03-11T04:50:02.391Z,20.23
2023-03-11T04:51:02.391Z,20.27
2023-03-11T04:52:02.411Z,20.23
2023-03-11T04:53:02.373Z,20.34
2023-03-11T04:54:02.401Z,20.26
2023-03-11T04:55:02.364Z,20.20
2023-03-11T04:56:02.368Z,20.27
2023-03-11T04:57:02.354Z,20.35
2023-03-11T04:58:02.346Z,20.38
2023-03-11T04:59:02.344Z,20.42
2023-03-11T05:00:02.368Z,20.37
2023-03-11T05:01:02.371Z,20.37
2023-03-11T05:02:02.330Z,20.42
2023-03-11T05:03:02.408Z,20.41
2023-03-11T05:04:02.321Z,20.34
2023-03-11T05:05:02.329Z,20.42
2023-03-11T05:06:02.320Z,20.38
2023-03-11T05:07:02.308Z,20.48
2023-03-11T05:08:02.311Z,20.42
2023-03-11T05:09:02.301Z,20.48
2023-03-11T05:10:02.304Z,20.44
2023-03-11T05:11:02.308Z,20.42
2023-03-11T05:12:02.300Z,20.41
2023-03-11T05:13:02.325Z,20.37
2023-03-11T05:14:02.261Z,20.41
2023-03-11T05:15:02.281Z,20.44
2023-03-11T05:16:02.394Z,20.37
2023-03-11T05:17:02.278Z,20.37
2023-03-11T05:18:02.262Z,20.49
2023-03-11T05:19:02.278Z,20.38
2023-03-11T05:20:02.285Z,20.37
2023-03-11T05:21:02.253Z,20.38
2023-03-11T05:22:02.233Z,20.40
2023-03-11T05:23:02.242Z,20.40
2023-03-11T05:24:02.246Z,20.42
2023-03-11T05:25:02.230Z,20.40
2023-03-11T05:26:02.219Z,20.48
2023-03-11T05:27:02.221Z,20.41
2023-03-11T05:28:02.226Z,20.49
2023-03-11T05:29:02.207Z,20.44
2023-03-11T05:30:02.216Z,20.49
2023-03-11T05:31:02.215Z,20.48
2023-03-11T05:32:02.192Z,20.44
2023-03-11T05:33:02.211Z,20.42
2023-03-11T05:34:02.178Z,20.44
2023-03-11T05:35:02.203Z,20.42
2023-03-11T05:36:02.204Z,20.40
2023-03-11T05:37:03.275Z,20.44
2023-03-11T05:38:02.182Z,20.42
2023-03-11T05:39:02.205Z,20.42
2023-03-11T05:40:02.197Z,20.41
2023-03-11T05:41:02.176Z,20.44
2023-03-11T05:42:02.152Z,20.48
2023-03-11T05:43:02.166Z,20.48
2023-03-11T05:44:02.174Z,20.48
2023-03-11T05:45:02.138Z,20.42
2023-03-11T05:46:02.185Z,20.51
2023-03-11T05:47:02.253Z,20.42
2023-03-11T05:48:02.126Z,20.51
2023-03-11T05:49:02.152Z,20.42
2023-03-11T05:50:02.122Z,20.49
2023-03-11T05:51:02.162Z,20.46
2023-03-11T05:52:02.130Z,20.53
2023-03-11T05:53:02.104Z,20.51
2023-03-11T05:54:02.094Z,20.46
2023-03-11T05:55:02.124Z,20.48
2023-03-11T05:56:02.104Z,20.51
2023-03-11T05:57:02.092Z,20.51
2023-03-11T05:58:02.133Z,20.53
2023-03-11T05:59:02.073Z,20.46
2023-03-11T06:00:02.072Z,20.49
2023-03-11T06:01:02.050Z,20.56
2023-03-11T06:02:02.054Z,20.53
2023-03-11T06:03:02.069Z,20.49
2023-03-11T06:04:02.165Z,20.57
2023-03-11T06:05:02.320Z,20.53
2023-03-11T06:06:02.074Z,20.51
2023-03-11T06:07:02.070Z,20.56
2023-03-11T06:08:02.073Z,20.49
2023-03-11T06:09:02.038Z,20.49
2023-03-11T06:10:02.026Z,20.54
2023-03-11T06:11:02.014Z,20.48
2023-03-11T06:12:02.024Z,20.49
2023-03-11T06:13:02.017Z,20.60
2023-03-11T06:14:02.023Z,20.51
2023-03-11T06:15:02.006Z,20.48
2023-03-11T06:16:02.054Z,20.54
2023-03-11T06:17:01.988Z,20.58
2023-03-11T06:18:01.983Z,20.54
2023-03-11T06:19:02.039Z,20.51
2023-03-11T06:20:01.975Z,20.54
2023-03-11T06:21:01.961Z,20.56
2023-03-11T06:22:01.987Z,20.51
2023-03-11T06:23:01.985Z,20.49
2023-03-11T06:24:01.956Z,20.61
2023-03-11T06:25:01.996Z,20.57
2023-03-11T06:26:01.937Z,20.57
2023-03-11T06:27:01.939Z,20.61
2023-03-11T06:28:01.951Z,20.63
2023-03-11T06:29:01.930Z,20.54
2023-03-11T06:30:01.932Z,20.56
2023-03-11T06:31:01.933Z,20.58
2023-03-11T06:32:01.937Z,20.58
2023-03-11T06:33:01.924Z,20.57
2023-03-11T06:34:01.906Z,20.53
2023-03-11T06:35:01.919Z,20.60
2023-03-11T06:36:02.148Z,20.58
2023-03-11T06:37:01.886Z,20.56
2023-03-11T06:38:01.877Z,20.51
2023-03-11T06:39:01.891Z,20.56
2023-03-11T06:40:01.903Z,20.57
2023-03-11T06:41:01.891Z,20.57
2023-03-11T06:42:01.906Z,20.61
2023-03-11T06:43:01.882Z,20.60
2023-03-11T06:44:01.866Z,20.61
2023-03-11T06:45:01.860Z,20.63
2023-03-11T06:46:01.951Z,20.61
2023-03-11T06:47:01.866Z,20.64
2023-03-11T06:48:01.842Z,20.66
2023-03-11T06:49:01.842Z,20.64
2023-03-11T06:50:01.829Z,20.67
2023-03-11T06:51:01.840Z,20.75
2023-03-11T06:52:01.840Z,20.71
2023-03-11T06:55:34.860Z,20.76
2023-03-11T06:56:34.841Z,20.78
2023-03-11T06:57:34.829Z,20.86
2023-03-11T06:58:34.810Z,20.78
2023-03-11T06:59:34.815Z,20.85
2023-03-11T07:00:34.798Z,20.90
2023-03-11T07:01:34.876Z,20.90
2023-03-11T07:02:34.825Z,20.90
2023-03-11T07:03:34.793Z,20.91
2023-03-11T07:04:34.791Z,20.98
2023-03-11T07:05:34.778Z,20.98
2023-03-11T07:06:34.825Z,20.98
2023-03-11T07:07:34.770Z,21.03
2023-03-11T07:08:34.769Z,21.09
2023-03-11T07:09:34.784Z,21.01
2023-03-11T07:10:34.762Z,21.03
2023-03-11T07:11:34.807Z,21.01
2023-03-11T07:12:34.747Z,21.11
2023-03-11T07:13:34.748Z,21.11
2023-03-11T07:14:34.779Z,21.04
2023-03-11T07:15:34.757Z,21.12
2023-03-11T07:16:34.804Z,21.09
2023-03-11T07:17:34.735Z,21.18
2023-03-11T07:18:34.736Z,21.19
2023-03-11T07:19:34.757Z,21.19
2023-03-11T07:20:34.714Z,21.22
2023-03-11T07:21:34.720Z,21.25
2023-03-11T07:22:34.731Z,21.21
2023-03-11T07:23:34.716Z,21.30
2023-03-11T07:24:34.732Z,21.30
2023-03-11T07:25:34.691Z,21.33
2023-03-11T07:26:34.709Z,21.37
2023-03-11T07:27:34.702Z,21.34
2023-03-11T07:28:34.722Z,21.38
2023-03-11T07:29:34.678Z,21.36
2023-03-11T07:30:34.685Z,21.40
2023-03-11T07:31:34.704Z,21.48
2023-03-11T07:32:34.735Z,21.49
2023-03-11T07:33:34.682Z,21.58
2023-03-11T07:34:34.685Z,21.59
2023-03-11T07:35:34.692Z,21.56
2023-03-11T07:36:34.665Z,21.61
2023-03-11T07:37:34.673Z,21.61
2023-03-11T07:38:34.645Z,21.59
2023-03-11T07:39:34.648Z,21.62
2023-03-11T07:40:34.638Z,21.64
2023-03-11T07:41:34.677Z,21.71
2023-03-11T07:42:34.632Z,21.73
2023-03-11T07:43:34.656Z,21.76
2023-03-11T07:44:34.653Z,21.76
2023-03-11T07:45:34.820Z,21.80
2023-03-11T07:46:35.666Z,21.78
2023-03-11T07:47:34.619Z,21.83
2023-03-11T07:48:34.630Z,21.82
2023-03-11T07:49:34.633Z,21.85
2023-03-11T07:50:34.603Z,21.89
2023-03-11T07:51:34.594Z,21.92
2023-03-11T07:52:34.596Z,22.02
2023-03-11T07:53:34.626Z,21.94
2023-03-11T07:54:34.610Z,21.97
2023-03-11T07:55:34.588Z,22.05
2023-03-11T07:56:34.628Z,22.08
2023-03-11T07:57:34.590Z,22.08
2023-03-11T07:59:34.604Z,22.18
2023-03-11T08:00:34.585Z,22.16
2023-03-11T08:01:34.582Z,22.20
2023-03-11T08:02:34.690Z,22.22
2023-03-11T08:03:34.601Z,22.11
2023-03-11T08:04:34.588Z,22.20
2023-03-11T08:05:34.567Z,22.29
2023-03-11T08:06:34.563Z,22.24
2023-03-11T08:07:34.542Z,22.34
2023-03-11T08:08:34.557Z,22.27
2023-03-11T08:09:34.560Z,22.30
2023-03-11T08:10:34.554Z,22.34
2023-03-11T08:11:35.518Z,22.38
2023-03-11T08:12:34.551Z,22.36
2023-03-11T08:13:34.528Z,22.48
2023-03-11T08:14:34.557Z,22.48
2023-03-11T08:15:34.606Z,22.44
2023-03-11T08:16:34.600Z,22.45
2023-03-11T08:17:34.553Z,22.52
2023-03-11T08:18:34.519Z,22.49
2023-03-11T08:19:34.526Z,22.48
2023-03-11T08:20:34.530Z,22.52
2023-03-11T08:21:34.511Z,22.63
2023-03-11T08:22:34.548Z,22.60
2023-03-11T08:23:34.501Z,22.57
2023-03-11T08:24:34.508Z,22.64
2023-03-11T08:25:34.512Z,22.63
2023-03-11T08:26:34.512Z,22.61
2023-03-11T08:27:34.533Z,22.64
2023-03-11T08:28:34.491Z,22.69
2023-03-11T08:29:34.484Z,22.70
2023-03-11T08:30:34.544Z,22.78
2023-03-11T08:31:34.543Z,22.71
2023-03-11T08:32:34.501Z,22.78
2023-03-11T08:33:34.481Z,22.82
2023-03-11T08:34:34.472Z,22.86
2023-03-11T08:35:34.476Z,22.79
2023-03-11T08:36:34.492Z,22.85
2023-03-11T08:37:34.550Z,22.82
2023-03-11T08:38:34.468Z,22.81
2023-03-11T08:39:34.499Z,22.85
2023-03-11T08:40:34.473Z,22.92
2023-03-11T08:41:34.460Z,22.96
2023-03-11T08:42:36.816Z,22.96
2023-03-11T08:43:34.466Z,23.01
2023-03-11T08:44:34.455Z,22.89
2023-03-11T08:45:34.451Z,23.01
2023-03-11T08:46:34.477Z,23.03
2023-03-11T08:47:34.496Z,23.01
2023-03-11T08:48:34.481Z,23.06
2023-03-11T08:49:34.447Z,23.12
2023-03-11T08:50:44.191Z,23.09
2023-03-11T08:51:34.422Z,23.06
2023-03-11T08:52:34.434Z,23.06
2023-03-11T08:53:34.430Z,23.21
2023-03-11T08:54:34.446Z,23.14
2023-03-11T08:55:34.422Z,23.07
2023-03-11T08:56:34.432Z,23.16
2023-03-11T08:57:34.419Z,23.21
2023-03-11T08:58:34.448Z,23.09
2023-03-11T08:59:34.448Z,23.21
2023-03-11T09:00:34.440Z,23.25
2023-03-11T09:02:34.443Z,23.21
2023-03-11T09:03:34.482Z,23.26
2023-03-11T09:04:34.397Z,23.25
2023-03-11T09:05:34.409Z,23.32
2023-03-11T09:06:34.392Z,23.35
2023-03-11T09:07:34.394Z,23.44
2023-03-11T09:08:34.429Z,23.38
2023-03-11T09:09:34.392Z,23.42
2023-03-11T09:10:34.392Z,23.41
2023-03-11T09:11:34.402Z,23.40
2023-03-11T09:12:34.422Z,23.32
2023-03-11T09:13:34.430Z,23.47
2023-03-11T09:14:34.425Z,23.45
2023-03-11T09:15:34.400Z,23.48
2023-03-11T09:16:34.445Z,23.53
2023-03-11T09:17:34.378Z,23.55
2023-03-11T09:18:34.367Z,23.59
2023-03-11T09:19:34.397Z,23.57
2023-03-11T09:20:34.384Z,23.57
2023-03-11T09:21:34.372Z,23.57
2023-03-11T09:22:34.377Z,23.59
2023-03-11T09:23:34.393Z,23.63
2023-03-11T09:24:34.394Z,23.71
2023-03-11T09:25:34.363Z,23.62
2023-03-11T09:26:34.378Z,23.67
2023-03-11T09:27:34.351Z,23.75
2023-03-11T09:28:34.465Z,23.75
2023-03-11T09:31:07.459Z,23.78
2023-03-11T09:32:07.381Z,23.85
2023-03-11T09:33:07.381Z,23.85
2023-03-11T09:34:07.375Z,23.82
2023-03-11T09:35:07.384Z,23.90
2023-03-11T09:36:07.373Z,23.92
2023-03-11T09:37:07.378Z,23.92
2023-03-11T09:38:07.357Z,23.99
2023-03-11T09:39:07.360Z,23.93
2023-03-11T09:40:07.365Z,23.97
2023-03-11T09:41:07.405Z,23.92
2023-03-11T09:42:07.364Z,24.03
2023-03-11T09:43:07.374Z,24.09
2023-03-11T09:44:07.385Z,24.11
2023-03-11T09:45:07.353Z,24.04
2023-03-11T09:46:07.344Z,24.11
2023-03-11T09:47:07.358Z,24.11
2023-03-11T09:48:07.362Z,24.12
2023-03-11T09:49:07.353Z,24.11
2023-03-11T09:50:07.346Z,24.17
2023-03-11T09:51:07.358Z,24.14
2023-03-11T09:52:07.421Z,24.26
2023-03-11T09:53:07.338Z,24.19
2023-03-11T09:54:07.361Z,24.18
2023-03-11T09:55:07.364Z,24.24
2023-03-11T09:56:07.373Z,24.26
2023-03-11T09:57:07.416Z,24.26
2023-03-11T09:58:07.385Z,24.26
2023-03-11T09:59:07.348Z,24.32
2023-03-11T10:00:07.347Z,24.29
2023-03-11T10:01:07.339Z,24.34
2023-03-11T10:02:07.476Z,24.36
2023-03-11T10:13:21.928Z,24.51
2023-03-11T10:14:21.855Z,24.56
2023-03-11T10:15:21.875Z,24.61
2023-03-11T10:16:21.940Z,24.61
2023-03-11T10:17:21.855Z,24.61
2023-03-11T10:18:21.857Z,24.71
2023-03-11T10:19:21.844Z,24.74
2023-03-11T10:20:22.027Z,24.71
2023-03-11T10:21:24.536Z,24.82
2023-03-11T10:22:21.874Z,24.78
2023-03-11T10:23:21.850Z,24.80
2023-03-11T10:24:21.848Z,24.82
2023-03-11T10:25:21.885Z,24.83
2023-03-11T10:26:21.880Z,24.92
2023-03-11T10:27:21.841Z,24.92
2023-03-11T10:28:21.850Z,24.94
2023-03-11T10:29:21.849Z,24.93
2023-03-11T10:30:21.913Z,24.96
2023-03-11T10:31:21.919Z,25.04
2023-03-11T10:32:21.885Z,25.09
2023-03-11T10:33:21.844Z,25.08
2023-03-11T10:34:21.854Z,25.08
2023-03-11T10:35:21.836Z,25.11
2023-03-11T10:36:21.882Z,25.05
2023-03-11T10:37:21.833Z,25.17
2023-03-11T10:38:21.866Z,25.15
2023-03-11T10:39:21.852Z,25.22
2023-03-11T10:40:23.755Z,25.27
2023-03-11T10:41:21.841Z,25.22
2023-03-11T10:42:21.861Z,25.32
2023-03-11T10:43:21.853Z,25.37
2023-03-11T10:44:21.843Z,25.44
2023-03-11T10:45:21.872Z,25.47
2023-03-11T10:46:21.833Z,25.41
2023-03-11T10:47:21.860Z,25.60
2023-03-11T10:48:21.925Z,25.52
2023-03-11T10:49:21.854Z,25.64
2023-03-11T10:50:21.949Z,25.59
2023-03-11T10:51:21.843Z,25.69
2023-03-11T10:52:21.850Z,25.67
2023-03-11T10:53:21.908Z,25.75
2023-03-11T10:54:21.885Z,25.75
2023-03-11T10:55:21.856Z,25.81
2023-03-11T10:56:21.844Z,25.81
2023-03-11T10:57:21.876Z,25.86
2023-03-11T10:58:21.846Z,25.89
2023-03-11T10:59:21.845Z,26.01
2023-03-11T11:00:21.853Z,25.91
2023-03-11T11:01:22.124Z,25.97
2023-03-11T11:02:21.858Z,26.04
2023-03-11T11:03:21.862Z,26.11
2023-03-11T11:04:21.901Z,26.11
2023-03-11T11:05:21.883Z,26.19
2023-03-11T11:06:21.895Z,26.24
2023-03-11T11:07:21.903Z,26.24
2023-03-11T11:08:21.872Z,26.34
2023-03-11T11:09:21.871Z,26.39
2023-03-11T11:10:21.912Z,26.31
2023-03-11T11:11:21.868Z,26.45
2023-03-11T11:12:21.870Z,26.53
2023-03-11T11:13:21.868Z,26.52
2023-03-11T11:14:21.897Z,26.61
2023-03-11T11:15:21.867Z,26.60
2023-03-11T11:16:21.951Z,26.68
2023-03-11T11:17:21.921Z,26.74
2023-03-11T11:18:21.908Z,26.76
2023-03-11T11:19:21.876Z,26.84
2023-03-11T11:20:21.889Z,26.82
2023-03-11T11:21:21.887Z,26.93
2023-03-11T11:22:21.900Z,26.90
2023-03-11T11:23:21.903Z,27.01
2023-03-11T11:24:21.935Z,26.99
2023-03-11T11:25:21.931Z,27.11
2023-03-11T11:26:21.893Z,27.23
2023-03-11T11:27:21.960Z,27.19
2023-03-11T11:28:21.940Z,27.26
2023-03-11T11:29:21.916Z,27.34
2023-03-11T11:30:21.897Z,27.43
2023-03-11T11:31:21.904Z,27.43
2023-03-11T11:32:22.057Z,27.49
2023-03-11T11:33:21.977Z,27.52
2023-03-11T11:34:23.137Z,27.57
2023-03-11T11:35:21.950Z,27.62
2023-03-11T11:36:21.935Z,27.64
2023-03-11T11:37:21.921Z,27.79
2023-03-11T11:38:21.917Z,27.74
2023-03-11T11:39:21.948Z,27.89
2023-03-11T11:40:21.918Z,27.93
2023-03-11T11:41:21.922Z,27.96
2023-03-11T11:42:21.924Z,28.06
2023-03-11T11:43:21.927Z,28.02
2023-03-11T11:44:21.983Z,28.08
2023-03-11T11:45:21.940Z,28.21
2023-03-11T11:46:22.003Z,28.24
2023-03-11T11:47:21.954Z,28.26
2023-03-11T11:48:21.962Z,28.26
2023-03-11T11:49:21.975Z,28.39
2023-03-11T11:50:21.947Z,28.45
2023-03-11T11:51:21.963Z,28.51
2023-03-11T11:52:21.988Z,28.53
2023-03-11T11:53:21.960Z,28.60
2023-03-11T11:54:21.977Z,28.54
2023-03-11T11:55:21.981Z,28.68
2023-03-11T11:56:21.966Z,28.73
2023-03-11T11:57:22.015Z,28.79
2023-03-11T11:58:21.969Z,28.91
2023-03-11T11:59:21.988Z,28.90
2023-03-11T12:00:21.986Z,28.98
2023-03-11T12:01:21.991Z,29.08
2023-03-11T12:02:22.027Z,29.11
2023-03-11T12:03:22.102Z,29.20
2023-03-11T12:04:22.013Z,29.24
2023-03-11T12:05:22.051Z,29.29
2023-03-11T12:06:22.013Z,29.38
2023-03-11T12:07:22.005Z,29.51
2023-03-11T12:08:22.037Z,29.52
2023-03-11T12:09:22.021Z,29.51
2023-03-11T12:10:23.908Z,29.58
2023-03-11T12:11:22.046Z,29.70
2023-03-11T12:12:22.060Z,29.76
2023-03-11T12:13:22.028Z,29.84
2023-03-11T12:14:22.039Z,29.91
2023-03-11T12:15:22.040Z,29.95
2023-03-11T12:16:22.047Z,30.00
2023-03-11T12:17:22.133Z,30.09
2023-03-11T12:18:22.046Z,30.09
2023-03-11T12:19:22.066Z,30.28
2023-03-11T12:20:22.068Z,30.34
2023-03-11T12:21:22.096Z,30.34
2023-03-11T12:22:22.078Z,30.48
2023-03-11T12:23:22.078Z,30.54
2023-03-11T12:24:22.084Z,30.62
2023-03-11T12:25:22.176Z,30.66
2023-03-11T12:26:22.188Z,30.77
2023-03-11T12:27:22.187Z,30.81
2023-03-11T12:28:22.089Z,30.88
2023-03-11T12:29:22.195Z,30.86
2023-03-11T12:30:22.110Z,31.04
2023-03-11T12:31:22.170Z,31.12
2023-03-11T12:32:22.130Z,31.21
2023-03-11T12:33:22.139Z,31.26
2023-03-11T12:34:22.134Z,31.34
2023-03-11T12:35:22.130Z,31.47
2023-03-11T12:36:22.141Z,31.52
2023-03-11T12:37:22.154Z,31.53
2023-03-11T12:38:22.141Z,31.71
2023-03-11T12:39:22.136Z,31.74
2023-03-11T12:40:22.152Z,31.82
2023-03-11T12:41:22.156Z,32.05
2023-03-11T12:42:22.168Z,32.01
2023-03-11T12:43:22.161Z,32.17
2023-03-11T12:44:22.227Z,32.13
2023-03-11T12:45:22.179Z,32.27
2023-03-11T12:46:22.213Z,32.20
2023-03-11T12:47:22.201Z,32.34
2023-03-11T12:48:22.185Z,32.47
2023-03-11T12:49:22.221Z,32.54
2023-03-11T12:50:22.217Z,32.68
2023-03-11T12:51:22.209Z,32.69
2023-03-11T12:52:22.233Z,32.75
2023-03-11T12:53:22.238Z,32.81
2023-03-11T12:54:22.235Z,32.98
2023-03-11T12:55:22.232Z,33.02
2023-03-11T12:56:22.254Z,33.09
2023-03-11T12:57:22.228Z,33.09
2023-03-11T12:58:23.879Z,33.09
2023-03-11T12:59:22.270Z,33.21
2023-03-11T13:00:22.267Z,33.28
2023-03-11T13:01:22.281Z,33.37
2023-03-11T13:02:22.263Z,33.41
2023-03-11T13:03:22.303Z,33.55
2023-03-11T13:04:22.313Z,33.50
2023-03-11T13:05:22.299Z,33.47
2023-03-11T13:06:22.323Z,33.65
2023-03-11T13:07:22.478Z,33.73
2023-03-11T13:08:22.326Z,33.81
2023-03-11T13:09:22.334Z,33.89
2023-03-11T13:10:22.329Z,33.84
2023-03-11T13:11:22.325Z,33.97
2023-03-11T13:12:22.346Z,34.02
2023-03-11T13:13:22.339Z,34.03
2023-03-11T13:14:22.361Z,33.93
2023-03-11T13:15:22.375Z,33.99
2023-03-11T13:16:22.402Z,33.89
2023-03-11T13:17:22.363Z,33.89
2023-03-11T13:18:22.371Z,34.03
2023-03-11T13:19:22.421Z,34.12
2023-03-11T13:20:22.378Z,34.12
2023-03-11T13:21:22.401Z,34.12
2023-03-11T13:22:22.388Z,34.22
2023-03-11T13:23:22.418Z,34.24
2023-03-11T13:24:22.452Z,34.19
2023-03-11T13:25:22.443Z,34.18
2023-03-11T13:26:22.427Z,34.06
2023-03-11T13:27:22.432Z,34.12
2023-03-11T13:28:22.480Z,34.14
2023-03-11T13:29:22.479Z,34.22
2023-03-11T13:30:22.467Z,34.22
2023-03-11T13:31:22.563Z,34.19
2023-03-11T13:32:22.549Z,34.32
2023-03-11T13:33:22.520Z,34.17
2023-03-11T13:34:22.506Z,34.19
2023-03-11T13:37:55.547Z,34.33
2023-03-11T13:38:55.522Z,34.21
2023-03-11T13:39:55.559Z,34.12
2023-03-11T13:40:55.549Z,34.19
2023-03-11T13:41:55.545Z,34.12
2023-03-11T13:42:55.554Z,34.15
2023-03-11T13:43:55.549Z,34.11
2023-03-11T13:44:55.592Z,34.08
2023-03-11T13:45:55.591Z,34.14
2023-03-11T13:46:55.563Z,34.14
2023-03-11T13:47:55.561Z,34.06
2023-03-11T13:48:55.579Z,33.99
2023-03-11T13:49:55.596Z,33.96
2023-03-11T13:50:55.651Z,33.92
2023-03-11T13:51:55.594Z,33.85
2023-03-11T13:52:55.598Z,33.87
2023-03-11T13:53:55.619Z,33.87
2023-03-11T13:54:55.627Z,33.84
2023-03-11T13:55:55.642Z,33.85
2023-03-11T13:56:55.662Z,33.84
2023-03-11T13:57:55.636Z,33.81
2023-03-11T13:58:55.642Z,33.81
2023-03-11T13:59:55.644Z,33.71
2023-03-11T14:00:55.698Z,33.75
2023-03-11T14:01:55.704Z,33.58
2023-03-11T14:02:55.670Z,33.53
2023-03-11T14:03:55.760Z,33.50
2023-03-11T14:04:55.671Z,33.36
2023-03-11T14:05:55.683Z,33.23
2023-03-11T14:06:55.809Z,33.11
2023-03-11T14:07:55.745Z,33.01
2023-03-11T14:08:55.730Z,32.89
2023-03-11T14:09:55.701Z,32.81
2023-03-11T14:10:55.732Z,32.65
2023-03-11T14:11:55.711Z,32.42
2023-03-11T14:12:55.763Z,32.39
2023-03-11T14:13:55.763Z,32.34
2023-03-11T14:14:55.728Z,32.20
2023-03-11T14:15:55.757Z,32.20
2023-03-11T14:16:55.910Z,32.25
2023-03-11T14:17:55.762Z,32.17
2023-03-11T14:18:55.741Z,32.31
2023-03-11T14:19:55.834Z,32.27
2023-03-11T14:20:55.814Z,32.31
2023-03-11T14:21:55.748Z,32.34
2023-03-11T14:22:55.776Z,32.50
2023-03-11T14:23:55.765Z,32.59
2023-03-11T14:24:55.759Z,32.64
2023-03-11T14:25:55.778Z,32.69
2023-03-11T14:26:55.782Z,32.72
2023-03-11T14:27:55.776Z,32.80
2023-03-11T14:28:55.868Z,32.91
2023-03-11T14:29:55.789Z,32.96
2023-03-11T14:30:55.796Z,32.96
2023-03-11T14:31:55.868Z,33.09
2023-03-11T14:32:55.854Z,33.12
2023-03-11T14:33:55.828Z,33.16
2023-03-11T14:34:55.833Z,33.28
2023-03-11T14:35:55.861Z,33.32
2023-03-11T14:36:55.837Z,33.34
2023-03-11T14:37:55.832Z,33.47
2023-03-11T14:38:55.877Z,33.41
2023-03-11T14:39:55.845Z,33.43
2023-03-11T14:40:55.859Z,33.55
2023-03-11T14:41:55.863Z,33.53
2023-03-11T14:42:55.848Z,33.48
2023-03-11T14:43:55.882Z,33.52
2023-03-11T14:44:55.877Z,33.53
2023-03-11T14:45:55.904Z,33.53
2023-03-11T14:46:55.891Z,33.50
2023-03-11T14:47:55.877Z,33.50
2023-03-11T14:48:55.913Z,33.53
2023-03-11T14:49:55.884Z,33.43
2023-03-11T14:50:55.890Z,33.52
2023-03-11T14:51:55.896Z,33.48
2023-03-11T14:52:55.929Z,33.46
2023-03-11T14:53:55.935Z,33.41
2023-03-11T14:54:55.923Z,33.32
2023-03-11T14:55:55.934Z,33.23
2023-03-11T14:56:55.914Z,33.12
2023-03-11T14:57:55.931Z,33.11
2023-03-11T14:59:07.018Z,33.08
2023-03-11T14:59:55.948Z,32.98
2023-03-11T15:00:56.031Z,32.84
2023-03-11T15:01:55.963Z,32.80
2023-03-11T15:02:56.105Z,32.64
2023-03-11T15:03:55.956Z,32.62
2023-03-11T15:04:55.966Z,32.42
2023-03-11T15:05:55.973Z,32.23
2023-03-11T15:06:56.009Z,32.12
2023-03-11T15:07:55.980Z,31.95
2023-03-11T15:08:55.999Z,31.88
2023-03-11T15:09:56.000Z,31.77
2023-03-11T15:10:55.997Z,31.55
2023-03-11T15:11:56.023Z,31.28
2023-03-11T15:12:56.003Z,31.13
2023-03-11T15:13:56.023Z,30.96
2023-03-11T15:14:56.031Z,30.88
2023-03-11T15:15:56.030Z,30.69
2023-03-11T15:16:56.177Z,30.42
2023-03-11T15:17:56.040Z,30.24
2023-03-11T15:18:56.044Z,30.02
2023-03-11T15:19:56.063Z,29.88
2023-03-11T15:20:56.052Z,29.66
2023-03-11T15:21:56.041Z,29.55
2023-03-11T15:22:57.594Z,29.35
2023-03-11T15:23:56.085Z,29.20
2023-03-11T15:24:56.059Z,29.11
2023-03-11T15:25:56.101Z,28.88
2023-03-11T15:26:56.104Z,28.85
2023-03-11T15:27:56.107Z,28.58
2023-03-11T15:28:56.085Z,28.49
2023-03-11T15:29:56.074Z,28.28
2023-03-11T15:30:56.152Z,28.24
2023-03-11T15:31:56.087Z,28.11
2023-03-11T15:32:56.172Z,28.01
2023-03-11T15:33:56.106Z,27.79
2023-03-11T15:34:56.087Z,27.62
2023-03-11T15:35:56.100Z,27.48
2023-03-11T15:36:56.123Z,27.43
2023-03-11T15:37:56.109Z,27.30
2023-03-11T15:38:56.132Z,27.21
2023-03-11T15:39:56.098Z,27.04
2023-03-11T15:40:56.096Z,26.96
2023-03-11T15:41:56.166Z,26.84
2023-03-11T15:42:56.122Z,26.72
2023-03-11T15:43:56.125Z,26.53
2023-03-11T15:44:56.126Z,26.47
2023-03-11T15:45:56.170Z,26.42
2023-03-11T15:46:56.118Z,26.27
2023-03-11T15:47:56.140Z,26.09
2023-03-11T15:51:29.152Z,25.79
2023-03-11T15:52:29.134Z,25.70
2023-03-11T15:53:29.181Z,25.57
2023-03-11T15:54:29.151Z,25.51
2023-03-11T15:55:29.160Z,25.48
2023-03-11T15:56:29.134Z,25.34
2023-03-11T15:57:29.154Z,25.26
2023-03-11T15:58:29.146Z,25.19
2023-03-11T15:59:29.165Z,25.15
2023-03-11T16:00:29.147Z,25.00
2023-03-11T16:12:34.743Z,24.09
2023-03-11T16:13:34.708Z,24.08
2023-03-11T16:14:34.719Z,24.03
2023-03-11T16:15:34.719Z,23.87
2023-03-11T16:16:34.711Z,23.90
2023-03-11T16:17:48.813Z,23.84
2023-03-11T16:18:34.680Z,23.77
2023-03-11T16:19:34.690Z,23.64
2023-03-11T16:20:34.694Z,23.62
2023-03-11T16:21:34.666Z,23.52
2023-03-11T16:22:34.667Z,23.48
2023-03-11T16:23:50.200Z,23.44
2023-03-11T16:24:34.659Z,23.32
2023-03-11T16:25:34.683Z,23.37
2023-03-11T16:26:34.679Z,23.32
2023-03-11T16:27:34.664Z,23.26
2023-03-11T16:28:34.684Z,23.25
2023-03-11T16:29:34.660Z,23.22
2023-03-11T16:30:34.674Z,23.12
2023-03-11T16:31:34.705Z,23.09
2023-03-11T16:32:34.734Z,23.06
2023-03-11T16:33:34.662Z,23.09
2023-03-11T16:34:34.652Z,23.09
2023-03-11T16:35:34.661Z,23.03
2023-03-11T16:36:34.639Z,22.91
2023-03-11T16:37:34.651Z,22.96
2023-03-11T16:38:34.665Z,22.85
2023-03-11T16:39:34.655Z,22.81
2023-03-11T16:40:34.642Z,22.82
2023-03-11T16:41:34.624Z,22.81
2023-03-11T16:42:34.635Z,22.73
2023-03-11T16:43:34.644Z,22.73
2023-03-11T16:44:34.633Z,22.66
2023-03-11T16:45:34.616Z,22.59
2023-03-11T16:46:34.663Z,22.55
2023-03-11T16:47:34.622Z,22.55
2023-03-11T16:48:34.620Z,22.44
2023-03-11T16:49:34.621Z,22.44
2023-03-11T16:50:37.305Z,22.51
2023-03-11T16:51:34.606Z,22.48
2023-03-11T16:52:34.707Z,22.46
2023-03-11T16:53:34.604Z,22.42
2023-03-11T16:54:34.614Z,22.41
2023-03-11T16:55:34.595Z,22.42
2023-03-11T16:56:34.592Z,22.39
2023-03-11T16:57:34.587Z,22.30
2023-03-11T16:58:34.581Z,22.31
2023-03-11T16:59:34.631Z,22.26
2023-03-11T17:00:34.607Z,22.27
2023-03-11T17:01:34.585Z,22.30
2023-03-11T17:02:34.581Z,22.27
2023-03-11T17:03:42.504Z,22.20
2023-03-11T17:04:34.596Z,22.24
2023-03-11T17:05:34.582Z,22.11
2023-03-11T17:06:34.574Z,22.26
2023-03-11T17:07:34.565Z,22.11
2023-03-11T17:08:34.555Z,22.11
2023-03-11T17:09:34.550Z,22.11
2023-03-11T17:10:34.566Z,22.11
2023-03-11T17:11:34.571Z,22.05
2023-03-11T17:12:34.567Z,22.05
2023-03-11T17:13:34.560Z,22.04
2023-03-11T17:14:34.543Z,21.99
2023-03-11T17:15:34.525Z,22.00
2023-03-11T17:16:34.676Z,21.94
2023-03-11T17:17:34.523Z,21.94
2023-03-11T17:18:34.531Z,21.89
2023-03-11T17:19:34.543Z,21.90
2023-03-11T17:20:34.578Z,21.85
2023-03-11T17:21:34.520Z,21.90
2023-03-11T17:22:34.510Z,21.80
2023-03-11T17:23:34.516Z,21.86